sensor_id;sensor_type;location;lat;lon;timestamp;P1;durP1;ratioP1;P2;durP2;ratioP2
50585;SDS011;36542;51.700;8.846;2023-07-30T00:01:26;13.13;;;10.93;;
50585;SDS011;36542;51.700;8.846;2023-07-30T00:03:52;11.83;;;10.67;;
50585;SDS011;36542;51.700;8.846;2023-07-30T00:06:20;12.53;;;11.20;;
50585;SDS011;36542;51.700;8.846;2023-07-30T00:08:47;16.00;;;12.03;;
50585;SDS011;36542;51.700;8.846;2023-07-30T00:11:16;12.30;;;10.43;;
50585;SDS011;36542;51.700;8.846;2023-07-30T00:13:42;11.83;;;10.60;;
50585;SDS011;36542;51.700;8.846;2023-07-30T00:16:09;13.97;;;11.30;;
50585;SDS011;36542;51.700;8.846;2023-07-30T00:18:34;13.23;;;11.50;;
50585;SDS011;36542;51.700;8.846;2023-07-30T00:21:00;13.30;;;10.70;;
50585;SDS011;36542;51.700;8.846;2023-07-30T00:23:25;13.40;;;11.03;;
50585;SDS011;36542;51.700;8.846;2023-07-30T00:25:51;12.03;;;10.40;;
50585;SDS011;36542;51.700;8.846;2023-07-30T00:28:17;12.30;;;10.80;;
50585;SDS011;36542;51.700;8.846;2023-07-30T00:30:42;13.50;;;11.57;;
50585;SDS011;36542;51.700;8.846;2023-07-30T00:33:08;12.33;;;10.70;;
50585;SDS011;36542;51.700;8.846;2023-07-30T00:35:33;14.87;;;11.97;;
50585;SDS011;36542;51.700;8.846;2023-07-30T00:37:59;16.73;;;12.93;;
50585;SDS011;36542;51.700;8.846;2023-07-30T00:40:24;14.00;;;12.43;;
50585;SDS011;36542;51.700;8.846;2023-07-30T00:42:50;15.30;;;12.43;;
50585;SDS011;36542;51.700;8.846;2023-07-30T00:45:15;15.50;;;12.67;;
50585;SDS011;36542;51.700;8.846;2023-07-30T00:47:41;16.83;;;12.77;;
50585;SDS011;36542;51.700;8.846;2023-07-30T00:50:07;16.33;;;12.93;;
50585;SDS011;36542;51.700;8.846;2023-07-30T00:52:33;15.40;;;13.30;;
50585;SDS011;36542;51.700;8.846;2023-07-30T00:54:59;17.00;;;13.40;;
50585;SDS011;36542;51.700;8.846;2023-07-30T00:57:27;15.10;;;12.93;;
50585;SDS011;36542;51.700;8.846;2023-07-30T00:59:53;15.63;;;13.17;;
50585;SDS011;36542;51.700;8.846;2023-07-30T01:02:19;17.67;;;13.83;;
50585;SDS011;36542;51.700;8.846;2023-07-30T01:04:46;17.67;;;14.27;;
50585;SDS011;36542;51.700;8.846;2023-07-30T01:07:11;17.50;;;13.57;;
50585;SDS011;36542;51.700;8.846;2023-07-30T01:09:37;19.57;;;14.37;;
50585;SDS011;36542;51.700;8.846;2023-07-30T01:12:03;19.07;;;15.33;;
50585;SDS011;36542;51.700;8.846;2023-07-30T01:14:30;20.40;;;15.13;;
50585;SDS011;36542;51.700;8.846;2023-07-30T01:16:57;20.37;;;15.20;;
50585;SDS011;36542;51.700;8.846;2023-07-30T01:19:23;20.13;;;15.47;;
50585;SDS011;36542;51.700;8.846;2023-07-30T01:21:48;19.77;;;15.13;;
50585;SDS011;36542;51.700;8.846;2023-07-30T01:24:14;21.93;;;16.53;;
50585;SDS011;36542;51.700;8.846;2023-07-30T01:26:43;26.57;;;17.53;;
50585;SDS011;36542;51.700;8.846;2023-07-30T01:29:11;26.73;;;18.33;;
50585;SDS011;36542;51.700;8.846;2023-07-30T01:31:45;25.37;;;18.03;;
50585;SDS011;36542;51.700;8.846;2023-07-30T01:34:17;25.80;;;17.53;;
50585;SDS011;36542;51.700;8.846;2023-07-30T01:36:44;28.00;;;18.30;;
50585;SDS011;36542;51.700;8.846;2023-07-30T01:39:10;25.93;;;18.47;;
50585;SDS011;36542;51.700;8.846;2023-07-30T01:41:36;27.17;;;18.77;;
50585;SDS011;36542;51.700;8.846;2023-07-30T01:44:02;27.00;;;18.90;;
50585;SDS011;36542;51.700;8.846;2023-07-30T01:46:28;30.43;;;19.07;;
50585;SDS011;36542;51.700;8.846;2023-07-30T01:48:53;26.80;;;17.83;;
50585;SDS011;36542;51.700;8.846;2023-07-30T01:51:19;26.90;;;17.97;;
50585;SDS011;36542;51.700;8.846;2023-07-30T01:53:44;22.63;;;15.90;;
50585;SDS011;36542;51.700;8.846;2023-07-30T01:56:10;21.27;;;16.20;;
50585;SDS011;36542;51.700;8.846;2023-07-30T01:58:35;22.87;;;15.37;;
50585;SDS011;36542;51.700;8.846;2023-07-30T02:01:01;24.00;;;14.17;;
50585;SDS011;36542;51.700;8.846;2023-07-30T02:03:26;18.77;;;13.47;;
50585;SDS011;36542;51.700;8.846;2023-07-30T02:05:52;18.93;;;12.73;;
50585;SDS011;36542;51.700;8.846;2023-07-30T02:08:17;18.73;;;12.53;;
50585;SDS011;36542;51.700;8.846;2023-07-30T02:10:43;21.13;;;14.07;;
50585;SDS011;36542;51.700;8.846;2023-07-30T02:13:08;23.37;;;15.00;;
50585;SDS011;36542;51.700;8.846;2023-07-30T02:15:34;24.50;;;15.13;;
50585;SDS011;36542;51.700;8.846;2023-07-30T02:17:59;21.77;;;14.33;;
50585;SDS011;36542;51.700;8.846;2023-07-30T02:20:25;18.40;;;12.33;;
50585;SDS011;36542;51.700;8.846;2023-07-30T02:22:51;19.80;;;12.83;;
50585;SDS011;36542;51.700;8.846;2023-07-30T02:25:16;20.13;;;12.10;;
50585;SDS011;36542;51.700;8.846;2023-07-30T02:27:42;18.30;;;11.00;;
50585;SDS011;36542;51.700;8.846;2023-07-30T02:30:07;18.90;;;11.97;;
50585;SDS011;36542;51.700;8.846;2023-07-30T02:32:33;16.70;;;11.37;;
50585;SDS011;36542;51.700;8.846;2023-07-30T02:34:58;15.83;;;11.00;;
50585;SDS011;36542;51.700;8.846;2023-07-30T02:37:24;16.87;;;10.13;;
50585;SDS011;36542;51.700;8.846;2023-07-30T02:39:49;15.50;;;10.37;;
50585;SDS011;36542;51.700;8.846;2023-07-30T02:42:15;16.93;;;9.53;;
50585;SDS011;36542;51.700;8.846;2023-07-30T02:44:40;13.00;;;9.93;;
50585;SDS011;36542;51.700;8.846;2023-07-30T02:47:06;16.87;;;10.43;;
50585;SDS011;36542;51.700;8.846;2023-07-30T02:49:31;14.60;;;10.10;;
50585;SDS011;36542;51.700;8.846;2023-07-30T02:51:57;16.70;;;10.67;;
50585;SDS011;36542;51.700;8.846;2023-07-30T02:54:22;16.47;;;10.23;;
50585;SDS011;36542;51.700;8.846;2023-07-30T02:56:48;13.63;;;9.57;;
50585;SDS011;36542;51.700;8.846;2023-07-30T02:59:13;18.17;;;10.23;;
50585;SDS011;36542;51.700;8.846;2023-07-30T03:01:39;16.93;;;8.97;;
50585;SDS011;36542;51.700;8.846;2023-07-30T03:04:04;13.33;;;8.50;;
50585;SDS011;36542;51.700;8.846;2023-07-30T03:06:30;14.20;;;8.43;;
50585;SDS011;36542;51.700;8.846;2023-07-30T03:08:56;12.97;;;8.33;;
50585;SDS011;36542;51.700;8.846;2023-07-30T03:11:22;12.20;;;7.93;;
50585;SDS011;36542;51.700;8.846;2023-07-30T03:13:48;15.00;;;8.50;;
50585;SDS011;36542;51.700;8.846;2023-07-30T03:16:13;16.50;;;8.07;;
50585;SDS011;36542;51.700;8.846;2023-07-30T03:18:39;12.27;;;6.53;;
50585;SDS011;36542;51.700;8.846;2023-07-30T03:21:04;14.73;;;6.47;;
50585;SDS011;36542;51.700;8.846;2023-07-30T03:23:30;15.33;;;6.33;;
50585;SDS011;36542;51.700;8.846;2023-07-30T03:25:56;10.37;;;5.27;;
50585;SDS011;36542;51.700;8.846;2023-07-30T03:28:23;10.17;;;5.00;;
50585;SDS011;36542;51.700;8.846;2023-07-30T03:30:48;14.43;;;5.77;;
50585;SDS011;36542;51.700;8.846;2023-07-30T03:33:14;9.53;;;5.03;;
50585;SDS011;36542;51.700;8.846;2023-07-30T03:35:40;8.17;;;5.33;;
50585;SDS011;36542;51.700;8.846;2023-07-30T03:38:05;10.67;;;4.50;;
50585;SDS011;36542;51.700;8.846;2023-07-30T03:40:31;10.53;;;4.63;;
50585;SDS011;36542;51.700;8.846;2023-07-30T03:42:56;22.70;;;5.43;;
50585;SDS011;36542;51.700;8.846;2023-07-30T03:45:25;14.20;;;5.33;;
50585;SDS011;36542;51.700;8.846;2023-07-30T03:50:51;9.03;;;5.43;;
50585;SDS011;36542;51.700;8.846;2023-07-30T03:54:15;9.73;;;5.50;;
50585;SDS011;36542;51.700;8.846;2023-07-30T03:57:41;12.60;;;5.60;;
50585;SDS011;36542;51.700;8.846;2023-07-30T04:00:14;14.00;;;6.13;;
50585;SDS011;36542;51.700;8.846;2023-07-30T04:02:39;10.73;;;5.90;;
50585;SDS011;36542;51.700;8.846;2023-07-30T04:05:05;10.40;;;5.93;;
50585;SDS011;36542;51.700;8.846;2023-07-30T04:07:31;11.77;;;6.63;;
50585;SDS011;36542;51.700;8.846;2023-07-30T04:09:56;16.50;;;6.30;;
50585;SDS011;36542;51.700;8.846;2023-07-30T04:12:22;15.10;;;6.07;;
50585;SDS011;36542;51.700;8.846;2023-07-30T04:14:48;10.63;;;5.50;;
50585;SDS011;36542;51.700;8.846;2023-07-30T04:17:13;17.33;;;6.20;;
50585;SDS011;36542;51.700;8.846;2023-07-30T04:19:39;16.63;;;5.47;;
50585;SDS011;36542;51.700;8.846;2023-07-30T04:22:04;14.83;;;5.93;;
50585;SDS011;36542;51.700;8.846;2023-07-30T04:24:30;9.13;;;4.90;;
50585;SDS011;36542;51.700;8.846;2023-07-30T04:26:55;13.83;;;5.23;;
50585;SDS011;36542;51.700;8.846;2023-07-30T04:29:21;9.93;;;5.03;;
50585;SDS011;36542;51.700;8.846;2023-07-30T04:31:46;9.13;;;4.37;;
50585;SDS011;36542;51.700;8.846;2023-07-30T04:34:12;7.60;;;4.90;;
50585;SDS011;36542;51.700;8.846;2023-07-30T04:36:38;13.27;;;5.10;;
50585;SDS011;36542;51.700;8.846;2023-07-30T04:39:04;10.43;;;5.50;;
50585;SDS011;36542;51.700;8.846;2023-07-30T04:41:29;6.63;;;4.70;;
50585;SDS011;36542;51.700;8.846;2023-07-30T04:43:55;10.50;;;4.57;;
50585;SDS011;36542;51.700;8.846;2023-07-30T04:46:21;9.90;;;4.27;;
50585;SDS011;36542;51.700;8.846;2023-07-30T04:48:46;13.67;;;4.67;;
50585;SDS011;36542;51.700;8.846;2023-07-30T04:51:12;9.17;;;4.67;;
50585;SDS011;36542;51.700;8.846;2023-07-30T04:53:37;10.23;;;5.00;;
50585;SDS011;36542;51.700;8.846;2023-07-30T04:56:03;8.57;;;4.20;;
50585;SDS011;36542;51.700;8.846;2023-07-30T04:58:28;8.27;;;4.20;;
50585;SDS011;36542;51.700;8.846;2023-07-30T05:00:54;8.43;;;4.27;;
50585;SDS011;36542;51.700;8.846;2023-07-30T05:03:20;9.27;;;4.37;;
50585;SDS011;36542;51.700;8.846;2023-07-30T05:05:46;8.37;;;4.30;;
50585;SDS011;36542;51.700;8.846;2023-07-30T05:08:11;10.63;;;4.30;;
50585;SDS011;36542;51.700;8.846;2023-07-30T05:10:37;7.73;;;3.97;;
50585;SDS011;36542;51.700;8.846;2023-07-30T05:13:02;10.20;;;4.80;;
50585;SDS011;36542;51.700;8.846;2023-07-30T05:15:28;8.83;;;3.60;;
50585;SDS011;36542;51.700;8.846;2023-07-30T05:17:53;9.43;;;4.10;;
50585;SDS011;36542;51.700;8.846;2023-07-30T05:20:19;8.73;;;3.80;;
50585;SDS011;36542;51.700;8.846;2023-07-30T05:22:44;8.87;;;3.43;;
50585;SDS011;36542;51.700;8.846;2023-07-30T05:25:10;7.53;;;3.30;;
50585;SDS011;36542;51.700;8.846;2023-07-30T05:27:36;8.20;;;3.53;;
50585;SDS011;36542;51.700;8.846;2023-07-30T05:30:01;9.57;;;3.70;;
50585;SDS011;36542;51.700;8.846;2023-07-30T05:32:27;9.43;;;3.70;;
50585;SDS011;36542;51.700;8.846;2023-07-30T05:34:52;8.33;;;4.10;;
50585;SDS011;36542;51.700;8.846;2023-07-30T05:37:18;7.67;;;3.60;;
50585;SDS011;36542;51.700;8.846;2023-07-30T05:39:44;10.90;;;3.30;;
50585;SDS011;36542;51.700;8.846;2023-07-30T05:42:09;10.07;;;3.73;;
50585;SDS011;36542;51.700;8.846;2023-07-30T05:44:35;8.57;;;3.80;;
50585;SDS011;36542;51.700;8.846;2023-07-30T05:47:00;8.27;;;3.37;;
50585;SDS011;36542;51.700;8.846;2023-07-30T05:49:26;6.37;;;2.70;;
50585;SDS011;36542;51.700;8.846;2023-07-30T05:51:51;7.75;;;3.13;;
50585;SDS011;36542;51.700;8.846;2023-07-30T05:54:17;5.50;;;2.97;;
50585;SDS011;36542;51.700;8.846;2023-07-30T05:56:43;7.05;;;2.70;;
50585;SDS011;36542;51.700;8.846;2023-07-30T05:59:08;6.97;;;2.88;;
50585;SDS011;36542;51.700;8.846;2023-07-30T06:01:34;7.43;;;3.03;;
50585;SDS011;36542;51.700;8.846;2023-07-30T06:03:59;5.93;;;3.10;;
50585;SDS011;36542;51.700;8.846;2023-07-30T06:06:25;4.00;;;2.45;;
50585;SDS011;36542;51.700;8.846;2023-07-30T06:08:53;7.90;;;2.72;;
50585;SDS011;36542;51.700;8.846;2023-07-30T06:11:19;5.00;;;2.50;;
50585;SDS011;36542;51.700;8.846;2023-07-30T06:13:45;6.65;;;3.00;;
50585;SDS011;36542;51.700;8.846;2023-07-30T06:16:11;6.50;;;2.55;;
50585;SDS011;36542;51.700;8.846;2023-07-30T06:18:36;7.80;;;2.63;;
50585;SDS011;36542;51.700;8.846;2023-07-30T06:21:02;4.75;;;2.70;;
50585;SDS011;36542;51.700;8.846;2023-07-30T06:23:28;5.45;;;2.88;;
50585;SDS011;36542;51.700;8.846;2023-07-30T06:25:54;5.25;;;2.30;;
50585;SDS011;36542;51.700;8.846;2023-07-30T06:28:19;6.70;;;2.45;;
50585;SDS011;36542;51.700;8.846;2023-07-30T06:30:45;4.63;;;2.40;;
50585;SDS011;36542;51.700;8.846;2023-07-30T06:33:10;8.30;;;2.72;;
50585;SDS011;36542;51.700;8.846;2023-07-30T06:35:36;6.93;;;2.47;;
50585;SDS011;36542;51.700;8.846;2023-07-30T06:38:02;3.55;;;1.95;;
50585;SDS011;36542;51.700;8.846;2023-07-30T06:40:27;7.30;;;2.35;;
50585;SDS011;36542;51.700;8.846;2023-07-30T06:42:53;9.43;;;2.65;;
50585;SDS011;36542;51.700;8.846;2023-07-30T06:45:18;5.40;;;2.50;;
50585;SDS011;36542;51.700;8.846;2023-07-30T06:47:44;7.00;;;2.25;;
50585;SDS011;36542;51.700;8.846;2023-07-30T06:50:10;6.00;;;2.25;;
50585;SDS011;36542;51.700;8.846;2023-07-30T06:52:36;8.32;;;2.40;;
50585;SDS011;36542;51.700;8.846;2023-07-30T06:55:02;8.02;;;2.72;;
50585;SDS011;36542;51.700;8.846;2023-07-30T06:57:28;4.30;;;2.58;;
50585;SDS011;36542;51.700;8.846;2023-07-30T06:59:54;4.50;;;2.30;;
50585;SDS011;36542;51.700;8.846;2023-07-30T07:02:20;4.95;;;2.17;;
50585;SDS011;36542;51.700;8.846;2023-07-30T07:04:46;6.70;;;2.30;;
50585;SDS011;36542;51.700;8.846;2023-07-30T07:07:11;7.18;;;2.53;;
50585;SDS011;36542;51.700;8.846;2023-07-30T07:09:37;9.05;;;2.60;;
50585;SDS011;36542;51.700;8.846;2023-07-30T07:12:03;5.82;;;2.55;;
50585;SDS011;36542;51.700;8.846;2023-07-30T07:14:28;6.53;;;2.60;;
50585;SDS011;36542;51.700;8.846;2023-07-30T07:16:54;6.47;;;2.70;;
50585;SDS011;36542;51.700;8.846;2023-07-30T07:19:23;6.30;;;2.53;;
50585;SDS011;36542;51.700;8.846;2023-07-30T07:21:48;4.63;;;2.55;;
50585;SDS011;36542;51.700;8.846;2023-07-30T07:24:14;6.35;;;2.78;;
50585;SDS011;36542;51.700;8.846;2023-07-30T07:26:40;6.15;;;3.10;;
50585;SDS011;36542;51.700;8.846;2023-07-30T07:29:05;5.35;;;2.78;;
50585;SDS011;36542;51.700;8.846;2023-07-30T07:31:31;4.10;;;3.00;;
50585;SDS011;36542;51.700;8.846;2023-07-30T07:33:57;10.00;;;2.92;;
50585;SDS011;36542;51.700;8.846;2023-07-30T07:36:22;8.32;;;2.60;;
50585;SDS011;36542;51.700;8.846;2023-07-30T07:38:48;5.90;;;2.70;;
50585;SDS011;36542;51.700;8.846;2023-07-30T07:41:17;10.10;;;3.40;;
50585;SDS011;36542;51.700;8.846;2023-07-30T07:43:43;7.17;;;3.37;;
50585;SDS011;36542;51.700;8.846;2023-07-30T07:46:09;7.17;;;2.87;;
50585;SDS011;36542;51.700;8.846;2023-07-30T07:48:38;7.13;;;3.13;;
50585;SDS011;36542;51.700;8.846;2023-07-30T07:51:05;7.67;;;3.00;;
50585;SDS011;36542;51.700;8.846;2023-07-30T07:53:31;8.30;;;3.40;;
50585;SDS011;36542;51.700;8.846;2023-07-30T07:55:56;14.33;;;3.33;;
50585;SDS011;36542;51.700;8.846;2023-07-30T07:58:22;6.83;;;3.13;;
50585;SDS011;36542;51.700;8.846;2023-07-30T08:00:47;7.23;;;2.90;;
50585;SDS011;36542;51.700;8.846;2023-07-30T08:03:13;8.27;;;3.10;;
50585;SDS011;36542;51.700;8.846;2023-07-30T08:05:38;6.80;;;3.10;;
50585;SDS011;36542;51.700;8.846;2023-07-30T08:08:06;2.57;;;2.03;;
50585;SDS011;36542;51.700;8.846;2023-07-30T08:10:32;6.13;;;2.10;;
50585;SDS011;36542;51.700;8.846;2023-07-30T08:12:57;4.37;;;2.07;;
50585;SDS011;36542;51.700;8.846;2023-07-30T08:15:23;2.47;;;2.00;;
50585;SDS011;36542;51.700;8.846;2023-07-30T08:17:48;3.00;;;1.83;;
50585;SDS011;36542;51.700;8.846;2023-07-30T08:20:14;5.07;;;2.20;;
50585;SDS011;36542;51.700;8.846;2023-07-30T08:22:40;3.63;;;1.97;;
50585;SDS011;36542;51.700;8.846;2023-07-30T08:25:05;3.77;;;1.83;;
50585;SDS011;36542;51.700;8.846;2023-07-30T08:27:31;4.00;;;2.23;;
50585;SDS011;36542;51.700;8.846;2023-07-30T08:29:57;3.70;;;1.97;;
50585;SDS011;36542;51.700;8.846;2023-07-30T08:32:22;4.20;;;2.10;;
50585;SDS011;36542;51.700;8.846;2023-07-30T08:34:48;4.03;;;2.27;;
50585;SDS011;36542;51.700;8.846;2023-07-30T08:37:16;8.17;;;3.00;;
50585;SDS011;36542;51.700;8.846;2023-07-30T08:39:42;5.03;;;2.40;;
50585;SDS011;36542;51.700;8.846;2023-07-30T08:42:07;3.53;;;2.20;;
50585;SDS011;36542;51.700;8.846;2023-07-30T08:44:34;4.97;;;1.87;;
50585;SDS011;36542;51.700;8.846;2023-07-30T08:47:00;4.80;;;2.20;;
50585;SDS011;36542;51.700;8.846;2023-07-30T08:49:25;5.03;;;2.40;;
50585;SDS011;36542;51.700;8.846;2023-07-30T08:51:57;2.87;;;2.00;;
50585;SDS011;36542;51.700;8.846;2023-07-30T08:54:23;5.33;;;1.73;;
50585;SDS011;36542;51.700;8.846;2023-07-30T08:56:51;6.63;;;2.20;;
50585;SDS011;36542;51.700;8.846;2023-07-30T08:59:18;7.50;;;2.20;;
50585;SDS011;36542;51.700;8.846;2023-07-30T09:01:45;4.57;;;2.07;;
50585;SDS011;36542;51.700;8.846;2023-07-30T09:04:18;8.80;;;4.60;;
50585;SDS011;36542;51.700;8.846;2023-07-30T09:06:47;3.43;;;1.90;;
50585;SDS011;36542;51.700;8.846;2023-07-30T09:09:14;5.00;;;2.03;;
50585;SDS011;36542;51.700;8.846;2023-07-30T09:11:39;6.53;;;2.13;;
50585;SDS011;36542;51.700;8.846;2023-07-30T09:14:05;6.87;;;2.50;;
50585;SDS011;36542;51.700;8.846;2023-07-30T09:16:32;5.90;;;2.37;;
50585;SDS011;36542;51.700;8.846;2023-07-30T09:18:57;7.97;;;2.67;;
50585;SDS011;36542;51.700;8.846;2023-07-30T09:21:33;6.07;;;2.57;;
50585;SDS011;36542;51.700;8.846;2023-07-30T09:24:01;4.50;;;2.30;;
50585;SDS011;36542;51.700;8.846;2023-07-30T09:26:43;6.47;;;2.37;;
50585;SDS011;36542;51.700;8.846;2023-07-30T09:29:11;8.57;;;2.80;;
50585;SDS011;36542;51.700;8.846;2023-07-30T09:31:47;4.77;;;2.33;;
50585;SDS011;36542;51.700;8.846;2023-07-30T09:34:19;9.97;;;3.33;;
50585;SDS011;36542;51.700;8.846;2023-07-30T09:36:47;6.50;;;3.13;;
50585;SDS011;36542;51.700;8.846;2023-07-30T09:39:16;8.30;;;2.77;;
50585;SDS011;36542;51.700;8.846;2023-07-30T09:41:46;4.97;;;2.87;;
50585;SDS011;36542;51.700;8.846;2023-07-30T09:44:12;7.07;;;3.03;;
50585;SDS011;36542;51.700;8.846;2023-07-30T09:46:44;8.40;;;2.87;;
50585;SDS011;36542;51.700;8.846;2023-07-30T09:49:15;7.47;;;2.80;;
50585;SDS011;36542;51.700;8.846;2023-07-30T09:51:41;5.53;;;3.20;;
50585;SDS011;36542;51.700;8.846;2023-07-30T09:54:07;5.97;;;3.30;;
50585;SDS011;36542;51.700;8.846;2023-07-30T09:56:35;7.13;;;3.17;;
50585;SDS011;36542;51.700;8.846;2023-07-30T09:59:02;5.90;;;3.07;;
50585;SDS011;36542;51.700;8.846;2023-07-30T10:01:28;6.80;;;3.33;;
50585;SDS011;36542;51.700;8.846;2023-07-30T10:03:55;6.90;;;3.60;;
50585;SDS011;36542;51.700;8.846;2023-07-30T10:06:22;7.63;;;3.60;;
50585;SDS011;36542;51.700;8.846;2023-07-30T10:08:52;6.03;;;3.10;;
50585;SDS011;36542;51.700;8.846;2023-07-30T10:11:20;9.07;;;3.53;;
50585;SDS011;36542;51.700;8.846;2023-07-30T10:13:46;6.30;;;3.50;;
50585;SDS011;36542;51.700;8.846;2023-07-30T10:16:12;6.93;;;3.60;;
50585;SDS011;36542;51.700;8.846;2023-07-30T10:18:42;8.67;;;3.00;;
50585;SDS011;36542;51.700;8.846;2023-07-30T10:21:08;9.70;;;3.93;;
50585;SDS011;36542;51.700;8.846;2023-07-30T10:23:35;7.10;;;3.40;;
50585;SDS011;36542;51.700;8.846;2023-07-30T10:26:10;6.43;;;3.33;;
50585;SDS011;36542;51.700;8.846;2023-07-30T10:28:36;4.80;;;3.23;;
50585;SDS011;36542;51.700;8.846;2023-07-30T10:31:07;9.47;;;3.60;;
50585;SDS011;36542;51.700;8.846;2023-07-30T10:33:43;8.60;;;3.70;;
50585;SDS011;36542;51.700;8.846;2023-07-30T10:36:10;7.30;;;3.60;;
50585;SDS011;36542;51.700;8.846;2023-07-30T10:38:36;8.53;;;3.60;;
50585;SDS011;36542;51.700;8.846;2023-07-30T10:41:15;7.13;;;3.40;;
50585;SDS011;36542;51.700;8.846;2023-07-30T10:43:43;6.53;;;4.13;;
50585;SDS011;36542;51.700;8.846;2023-07-30T10:46:16;13.10;;;4.30;;
50585;SDS011;36542;51.700;8.846;2023-07-30T10:48:43;8.50;;;3.97;;
50585;SDS011;36542;51.700;8.846;2023-07-30T10:51:11;6.97;;;3.93;;
50585;SDS011;36542;51.700;8.846;2023-07-30T10:53:38;11.37;;;3.87;;
50585;SDS011;36542;51.700;8.846;2023-07-30T10:56:07;10.33;;;3.80;;
50585;SDS011;36542;51.700;8.846;2023-07-30T10:58:34;7.97;;;4.27;;
50585;SDS011;36542;51.700;8.846;2023-07-30T11:01:01;4.72;;;3.90;;
50585;SDS011;36542;51.700;8.846;2023-07-30T11:03:28;6.45;;;3.60;;
50585;SDS011;36542;51.700;8.846;2023-07-30T11:05:56;8.25;;;3.88;;
50585;SDS011;36542;51.700;8.846;2023-07-30T11:08:32;9.20;;;3.45;;
50585;SDS011;36542;51.700;8.846;2023-07-30T11:11:01;7.00;;;3.55;;
50585;SDS011;36542;51.700;8.846;2023-07-30T11:13:28;5.82;;;2.90;;
50585;SDS011;36542;51.700;8.846;2023-07-30T11:15:53;5.90;;;3.08;;
50585;SDS011;36542;51.700;8.846;2023-07-30T11:18:19;7.07;;;3.10;;
50585;SDS011;36542;51.700;8.846;2023-07-30T11:20:44;7.07;;;3.05;;
50585;SDS011;36542;51.700;8.846;2023-07-30T11:23:17;10.75;;;3.30;;
50585;SDS011;36542;51.700;8.846;2023-07-30T11:25:45;13.95;;;3.53;;
50585;SDS011;36542;51.700;8.846;2023-07-30T11:28:12;9.63;;;3.22;;
50585;SDS011;36542;51.700;8.846;2023-07-30T11:30:38;7.13;;;3.55;;
50585;SDS011;36542;51.700;8.846;2023-07-30T11:33:03;8.77;;;3.42;;
50585;SDS011;36542;51.700;8.846;2023-07-30T11:35:29;8.43;;;3.40;;
50585;SDS011;36542;51.700;8.846;2023-07-30T11:37:55;5.55;;;2.90;;
50585;SDS011;36542;51.700;8.846;2023-07-30T11:40:22;8.85;;;2.95;;
50585;SDS011;36542;51.700;8.846;2023-07-30T11:42:48;8.68;;;3.25;;
50585;SDS011;36542;51.700;8.846;2023-07-30T11:45:21;6.53;;;3.35;;
50585;SDS011;36542;51.700;8.846;2023-07-30T11:47:48;8.20;;;3.50;;
50585;SDS011;36542;51.700;8.846;2023-07-30T11:50:14;6.32;;;3.08;;
50585;SDS011;36542;51.700;8.846;2023-07-30T11:52:53;7.88;;;2.95;;
50585;SDS011;36542;51.700;8.846;2023-07-30T11:55:20;8.25;;;3.15;;
50585;SDS011;36542;51.700;8.846;2023-07-30T11:57:46;7.03;;;2.97;;
50585;SDS011;36542;51.700;8.846;2023-07-30T12:00:12;6.85;;;2.90;;
50585;SDS011;36542;51.700;8.846;2023-07-30T12:02:37;6.68;;;2.50;;
50585;SDS011;36542;51.700;8.846;2023-07-30T12:05:04;5.93;;;2.65;;
50585;SDS011;36542;51.700;8.846;2023-07-30T12:07:30;7.25;;;2.47;;
50585;SDS011;36542;51.700;8.846;2023-07-30T12:10:08;6.13;;;2.45;;
50585;SDS011;36542;51.700;8.846;2023-07-30T12:12:35;8.35;;;3.17;;
50585;SDS011;36542;51.700;8.846;2023-07-30T12:15:00;4.50;;;2.47;;
50585;SDS011;36542;51.700;8.846;2023-07-30T12:17:26;6.00;;;2.35;;
50585;SDS011;36542;51.700;8.846;2023-07-30T12:19:52;7.35;;;2.83;;
50585;SDS011;36542;51.700;8.846;2023-07-30T12:22:17;7.30;;;2.55;;
50585;SDS011;36542;51.700;8.846;2023-07-30T12:24:43;4.95;;;2.25;;
50585;SDS011;36542;51.700;8.846;2023-07-30T12:27:08;4.90;;;2.42;;
50585;SDS011;36542;51.700;8.846;2023-07-30T12:29:34;6.63;;;2.60;;
50585;SDS011;36542;51.700;8.846;2023-07-30T12:31:59;7.57;;;2.53;;
50585;SDS011;36542;51.700;8.846;2023-07-30T12:34:25;6.20;;;2.00;;
50585;SDS011;36542;51.700;8.846;2023-07-30T12:36:50;5.57;;;2.03;;
50585;SDS011;36542;51.700;8.846;2023-07-30T12:39:16;7.85;;;1.90;;
50585;SDS011;36542;51.700;8.846;2023-07-30T12:41:41;3.47;;;1.70;;
50585;SDS011;36542;51.700;8.846;2023-07-30T12:44:07;3.75;;;1.90;;
50585;SDS011;36542;51.700;8.846;2023-07-30T12:46:34;4.68;;;1.77;;
50585;SDS011;36542;51.700;8.846;2023-07-30T12:49:00;4.22;;;1.75;;
50585;SDS011;36542;51.700;8.846;2023-07-30T12:51:32;3.53;;;1.65;;
50585;SDS011;36542;51.700;8.846;2023-07-30T12:53:58;5.25;;;1.88;;
50585;SDS011;36542;51.700;8.846;2023-07-30T12:56:24;4.00;;;1.70;;
50585;SDS011;36542;51.700;8.846;2023-07-30T12:58:49;6.30;;;1.83;;
50585;SDS011;36542;51.700;8.846;2023-07-30T13:01:15;4.43;;;1.95;;
50585;SDS011;36542;51.700;8.846;2023-07-30T13:03:41;7.88;;;1.98;;
50585;SDS011;36542;51.700;8.846;2023-07-30T13:06:10;5.07;;;1.80;;
50585;SDS011;36542;51.700;8.846;2023-07-30T13:08:37;4.75;;;1.50;;
50585;SDS011;36542;51.700;8.846;2023-07-30T13:11:04;3.97;;;1.65;;
50585;SDS011;36542;51.700;8.846;2023-07-30T13:13:29;4.93;;;1.63;;
50585;SDS011;36542;51.700;8.846;2023-07-30T13:15:55;4.47;;;1.55;;
50585;SDS011;36542;51.700;8.846;2023-07-30T13:18:22;3.88;;;1.67;;
50585;SDS011;36542;51.700;8.846;2023-07-30T13:20:48;5.22;;;1.85;;
50585;SDS011;36542;51.700;8.846;2023-07-30T13:23:14;4.53;;;1.80;;
50585;SDS011;36542;51.700;8.846;2023-07-30T13:25:40;4.70;;;1.58;;
50585;SDS011;36542;51.700;8.846;2023-07-30T13:28:06;5.28;;;1.88;;
50585;SDS011;36542;51.700;8.846;2023-07-30T13:30:32;6.88;;;1.90;;
50585;SDS011;36542;51.700;8.846;2023-07-30T13:32:57;4.78;;;1.85;;
50585;SDS011;36542;51.700;8.846;2023-07-30T13:35:23;4.38;;;2.00;;
50585;SDS011;36542;51.700;8.846;2023-07-30T13:37:48;4.13;;;1.60;;
50585;SDS011;36542;51.700;8.846;2023-07-30T13:40:14;5.22;;;2.20;;
50585;SDS011;36542;51.700;8.846;2023-07-30T13:42:39;3.90;;;1.80;;
50585;SDS011;36542;51.700;8.846;2023-07-30T13:45:05;5.70;;;1.70;;
50585;SDS011;36542;51.700;8.846;2023-07-30T13:47:31;5.60;;;1.58;;
50585;SDS011;36542;51.700;8.846;2023-07-30T13:49:56;3.53;;;1.77;;
50585;SDS011;36542;51.700;8.846;2023-07-30T13:52:22;3.60;;;1.98;;
50585;SDS011;36542;51.700;8.846;2023-07-30T13:54:47;4.22;;;1.60;;
50585;SDS011;36542;51.700;8.846;2023-07-30T13:57:13;4.68;;;1.80;;
50585;SDS011;36542;51.700;8.846;2023-07-30T13:59:50;5.78;;;1.55;;
50585;SDS011;36542;51.700;8.846;2023-07-30T14:02:16;5.57;;;1.77;;
50585;SDS011;36542;51.700;8.846;2023-07-30T14:04:41;5.55;;;2.00;;
50585;SDS011;36542;51.700;8.846;2023-07-30T14:07:07;6.80;;;1.60;;
50585;SDS011;36542;51.700;8.846;2023-07-30T14:09:32;3.45;;;1.50;;
50585;SDS011;36542;51.700;8.846;2023-07-30T14:12:01;4.13;;;1.75;;
50585;SDS011;36542;51.700;8.846;2023-07-30T14:14:29;5.57;;;2.00;;
50585;SDS011;36542;51.700;8.846;2023-07-30T14:16:55;6.40;;;2.47;;
50585;SDS011;36542;51.700;8.846;2023-07-30T14:19:20;6.03;;;1.90;;
50585;SDS011;36542;51.700;8.846;2023-07-30T14:21:46;6.13;;;2.00;;
50585;SDS011;36542;51.700;8.846;2023-07-30T14:24:12;8.37;;;2.70;;
50585;SDS011;36542;51.700;8.846;2023-07-30T14:26:37;5.37;;;2.60;;
50585;SDS011;36542;51.700;8.846;2023-07-30T14:29:04;9.53;;;3.10;;
50585;SDS011;36542;51.700;8.846;2023-07-30T14:31:29;6.90;;;2.80;;
50585;SDS011;36542;51.700;8.846;2023-07-30T14:33:55;5.07;;;2.27;;
50585;SDS011;36542;51.700;8.846;2023-07-30T14:36:20;4.20;;;2.60;;
50585;SDS011;36542;51.700;8.846;2023-07-30T14:38:46;5.73;;;2.70;;
50585;SDS011;36542;51.700;8.846;2023-07-30T14:41:11;3.13;;;1.60;;